^^

Nearby METAR Reports

 

LIRH - Frosinone (it-Af, Italy
Distance from station: SO 5km
Dati ricevuti: 25/10/2021 15:55
Few Clouds
Few Clouds
 Vento da SE
Vento: SE 15 km/h
Temperatura: 21°C
P.to Rugiada: 11°C
Umidità: 53%
Barometro: 1018 hPa
Clouds: Few Clouds
Visibility: 10 km
Cloud details: Few Clouds 1067 m
2021/10/25 13:55 LIRH 251355Z 14008KT 9999 FEW035 21/11 Q1018
LIRL - Latina (it-Afb), Italy
Distance from station: OSO 40km
Dati ricevuti: 25/10/2021 15:55
Parz. nuvoloso
Parz. nuvoloso
 Vento da ONO
Vento: ONO 7 km/h
Temperatura: 22°C
P.to Rugiada: 12°C
Umidità: 53%
Barometro: 1017 hPa
Clouds: Parz. nuvoloso
Visibility: 10 km
Cloud details: Few Clouds 914 m
Parz. nuvoloso 2134 m
2021/10/25 13:55 LIRL 251355Z 30004KT 9999 FEW030 SCT070 22/12 Q1017
 
LIRG - Guidonia (it-Afb, Italy
Distance from station: NO 63km
Dati ricevuti: 25/10/2021 15:55
Sereno
Sereno
 Vento da NNO
Vento: NNO 13 km/h
Temperatura: 20°C
P.to Rugiada: 7°C
Umidità: 43%
Barometro: 1018 hPa
Summary: Sereno
Visibility: greater than 10 km
2021/10/25 13:55 LIRG 251355Z 33007KT CAVOK 20/07 Q1018
LIRA - Ciampino(It-Afb/, Italy
Distance from station: ONO 64km
Dati ricevuti: 25/10/2021 16:20
Parz. nuvoloso
Parz. nuvoloso
 Vento da NO
Vento: NO 7 km/h
Temperatura: 20°C
P.to Rugiada: 9°C
Umidità: 49%
Barometro: 1018 hPa
Clouds: Parz. nuvoloso
Visibility: 10 km
Cloud details: Parz. nuvoloso 1829 m
2021/10/25 14:20 LIRA 251420Z 32004KT 9999 SCT060 20/09 Q1018
 
LIRU - Roma/Urbe (it-Af, Italy
Distance from station: ONO 76km
Dati ricevuti: 25/10/2021 15:50
Sereno
Sereno
 Vento da NNE
Vento: NNE 6 km/h
Temperatura: 21°C
P.to Rugiada: 9°C
Umidità: 46%
Barometro: 1018 hPa
Summary: Sereno
Visibility: greater than 10 km
2021/10/25 13:50 LIRU 251350Z 02003KT 340V060 CAVOK 21/09 Q1018
LIRE - Pratica Di Mare(, Italy
Distance from station: O 77km
Dati ricevuti: 25/10/2021 15:55
Parz. nuvoloso
Parz. nuvoloso
 Vento da O
Vento: O 11 km/h
Temperatura: 20°C
P.to Rugiada: 14°C
Umidità: 69%
Barometro: 1017 hPa
Clouds: Parz. nuvoloso
Visibility: 10 km
Cloud details: Parz. nuvoloso 1219 m
2021/10/25 13:55 LIRE 251355Z 28006KT 9999 SCT040 20/14 Q1017 RMK OVC BKN100 VIS MIN 9999 WIND THR13 29005KT WIND THR31 /////KT BLU
 
LIQN - Rieti, Italy
Distance from station: NNO 92km
Dati ricevuti: 25/10/2021 15:50
Sereno
Sereno
 Vento da NNO
Vento: NNO 11 km/h
Temperatura: 20°C
P.to Rugiada: 7°C
Umidità: 43%
Barometro: 1019 hPa
Summary: Sereno
Visibility: greater than 10 km
2021/10/25 13:50 LIQN 251350Z 33006KT 300V360 CAVOK 20/07 Q1019
LIRK - Terminillo, Italy
Distance from station: NNO 93km
Dati ricevuti: 25/10/2021 15:55

 Vento da SE
Vento: SE 31 km/h
Temperatura: 7°C
Temperatura del Vento: 3°C
P.to Rugiada: 5°C
Umidità: 87%
Barometro: 1022 hPa
2021/10/25 13:55 LIRK 251355Z AUTO 13017KT //// 07/05 Q1022
 
LIRF - Roma/Fiumicino, Italy
Distance from station: O 94km
Dati ricevuti: 25/10/2021 16:20
Sereno
Sereno
 Vento da O
Vento: O 9 km/h
Temperatura: 20°C
P.to Rugiada: 10°C
Umidità: 53%
Barometro: 1018 hPa
Summary: Sereno
Visibility: greater than 10 km
2021/10/25 14:20 LIRF 251420Z 26005KT CAVOK 20/10 Q1018 NOSIG
LIRM - Grazzanise (it-A, Italy
Distance from station: SE 94km
Dati ricevuti: 25/10/2021 15:55
Parz. nuvoloso
Parz. nuvoloso
 Vento da varies
Vento: varies 0 km/h
Temperatura: 18°C
P.to Rugiada: 10°C
Umidità: 60%
Barometro: 1018 hPa
Clouds: Parz. nuvoloso
Visibility: 10 km
Cloud details: Parz. nuvoloso 914 m
Parz. nuvoloso 2134 m
2021/10/25 13:55 LIRM 251355Z /////KT 9999 SCT030 SCT070 18/10 Q1018
 
LIBP - Pescara, Italy
Distance from station: NE 108km
Dati ricevuti: 25/10/2021 16:20
Molto nuvoloso
Molto nuvoloso
 Vento da NNE
Vento: NNE 11 km/h
Temperatura: 17°C
P.to Rugiada: 11°C
Umidità: 68%
Barometro: 1022 hPa
Clouds: Molto nuvoloso
Visibility: 10 km
Cloud details: Few Clouds 1524 m
Molto nuvoloso 1798 m
2021/10/25 14:20 LIBP 251420Z AUTO 03006KT 9999 FEW050/// BKN059/// 17/11 Q1022
LIRN - Napoli/Capodichino, Italy
Distance from station: SE 120km
Dati ricevuti: 25/10/2021 16:20
Molto nuvoloso
Molto nuvoloso
 Vento da E
Vento: E 13 km/h
Temperatura: 19°C
P.to Rugiada: 11°C
Umidità: 60%
Barometro: 1017 hPa
Clouds: Molto nuvoloso
Visibility: 10 km
Cloud details: Molto nuvoloso 2438 m
2021/10/25 14:20 LIRN 251420Z 09007KT 070V140 9999 BKN080 19/11 Q1017 NOSIG
 
LIRV - Viterbo (it-Mil), Italy
Distance from station: NO 133km
Dati ricevuti: 25/10/2021 15:55
Sereno
Sereno
 Vento da ENE
Vento: ENE 15 km/h
Temperatura: 18°C
P.to Rugiada: 7°C
Umidità: 49%
Barometro: 1019 hPa
Summary: Sereno
Visibility: greater than 10 km
2021/10/25 13:55 LIRV 251355Z 06008KT CAVOK 18/07 Q1019
LIQC - Capri, Italy
Distance from station: SSE 145km
Dati ricevuti: 25/10/2021 15:55
Molto nuvoloso
Molto nuvoloso
 Vento da ENE
Vento: ENE 19 km/h
Temperatura: 20°C
P.to Rugiada: 13°C
Umidità: 64%
Barometro: 1017 hPa
Clouds: Molto nuvoloso
Visibility: 10 km
Cloud details: Parz. nuvoloso 610 m
Molto nuvoloso 914 m
2021/10/25 13:55 LIQC 251355Z 06010KT 9999 SCT020 BKN030 20/13 Q1017 RMK OVC QUK 3 QUL 2 NE VIS MAR 12 KM VIS MIN 9999
 
LIRT - Trevico, Italy
Distance from station: ESE 172km
Dati ricevuti: 25/10/2021 15:55
Nebbia
Nebbia
 Vento da E
Vento: E 7 km/h
Temperatura: 8°C
Temperatura del Vento: 7°C
P.to Rugiada: 6°C
Umidità: 87%
Barometro: 1020 hPa
Summary: Nebbia
Visibility: 0 km
2021/10/25 13:55 LIRT 251355Z 09004KT 0000 FG VV/// 08/06 Q1020 RMK MON INVIS VAL INVIS VIS MIN 0000
LIRZ - Perugia, Italy
Distance from station: NNO 172km
Dati ricevuti: 25/10/2021 16:20
Sereno
Sereno
 Vento da NE
Vento: NE 17 km/h
Temperatura: 18°C
P.to Rugiada: 9°C
Umidità: 56%
Barometro: 1019 hPa
Clouds: Sereno
Visibility: 10 km
2021/10/25 14:20 LIRZ 251420Z AUTO 04009KT 9999 NCD 18/09 Q1019
 
LIRI - Pontecagnano (af, Italy
Distance from station: SE 177km
Dati ricevuti: 25/10/2021 15:50
Parz. nuvoloso
Parz. nuvoloso
 Vento da E
Vento: E 24 km/h
Temperatura: 21°C
P.to Rugiada: 12°C
Umidità: 57%
Barometro: 1017 hPa
Clouds: Parz. nuvoloso
Visibility: 10 km
Cloud details: Parz. nuvoloso 1219 m
2021/10/25 13:50 LIRI 251350Z 10013KT 9999 SCT040 21/12 Q1017
LIBF - Foggia/Gino Lisa, Italy
Distance from station: E 183km
Dati ricevuti: 25/10/2021 15:50
Parz. nuvoloso
Parz. nuvoloso
 Vento da E
Vento: E 20 km/h
Temperatura: 19°C
P.to Rugiada: 10°C
Umidità: 56%
Barometro: 1021 hPa
Clouds: Parz. nuvoloso
Visibility: 10 km
Cloud details: Few Clouds 914 m
Parz. nuvoloso 1829 m
2021/10/25 13:50 LIBF 251350Z 09011KT 060V120 9999 FEW030 SCT060 19/10 Q1021
 
LIQO - Monte Argentario, Italy
Distance from station: ONO 195km
Dati ricevuti: 24/10/2021 11:55
Non Attivo
Sereno
Sereno
 Vento da NE
Vento: NE 11 km/h
Temperatura: 16°C
P.to Rugiada: 6°C
Umidità: 52%
Barometro: 1022 hPa
Summary: Sereno
Visibility: greater than 10 km
2021/10/24 09:55 LIQO 240955Z 04006KT CAVOK 16/06 Q1022
LIBA - Amendola (it-Afb, Italy
Distance from station: E 198km
Dati ricevuti: 25/10/2021 15:55
Parz. nuvoloso
Parz. nuvoloso
 Vento da E
Vento: E 19 km/h
Temperatura: 19°C
P.to Rugiada: 12°C
Umidità: 64%
Barometro: 1021 hPa
Clouds: Parz. nuvoloso
Visibility: 10 km
Cloud details: Few Clouds 914 m
Parz. nuvoloso 1372 m
2021/10/25 13:55 LIBA 251355Z 08010KT 9999 FEW030 SCT045 19/12 Q1021 RMK BKN VIS MIN 9999 WIND THR11 08013KT WIND THR29 /////KT BLU
 
LIBN - Lecce (it-Afb), Italy
Dati ricevuti: 25/10/2021 15:55
Few Clouds
Few Clouds
 Vento da ESE
Vento: ESE 15 km/h
Temperatura: 21°C
P.to Rugiada: 12°C
Umidità: 57%
Barometro: 1019 hPa
Clouds: Few Clouds
Visibility: 10 km
Cloud details: Few Clouds 1067 m
2021/10/25 13:55 LIBN 251355Z 12008KT 9999 FEW035 21/12 Q1019 RMK SCT SCT060 VIS MIN 9999 WIND THR14 11007KT WIND THR32 12009KT BLU
LIPY - Ancona-Falconara, Italy
Dati ricevuti: 25/10/2021 16:20

 Vento da NNO
Vento: NNO 13 km/h
Temperatura: 15°C
P.to Rugiada: 11°C
Umidità: 77%
Barometro: 1022 hPa
Visibility: 10 km
2021/10/25 14:20 LIPY 251420Z AUTO 33007KT 310V010 9999 ///////// 15/11 Q1022
 
LICJ - Palermo-Punta Raisi, Italy
Dati ricevuti: 25/10/2021 16:20
Parz. nuvoloso
Parz. nuvoloso
 Vento da NE
Vento: NE 26 km/h
Temperatura: 21°C
P.to Rugiada: 17°C
Umidità: 78%
Barometro: 1013 hPa
Clouds: Parz. nuvoloso
Visibility: 10 km
Cloud details: Parz. nuvoloso 610 m
2021/10/25 14:20 LICJ 251420Z 05014KT 9999 SCT020 21/17 Q1013
LIEB - Capo Bellavista, Italy
Dati ricevuti: 25/10/2021 15:55
Molto nuvoloso
Molto nuvoloso
 Vento da NNE
Vento: NNE 33 km/h
Temperatura: 18°C
P.to Rugiada: 14°C
Umidità: 78%
Barometro: 1017 hPa
Clouds: Molto nuvoloso
Visibility: 10 km
Cloud details: Parz. nuvoloso 610 m
Molto nuvoloso 914 m
2021/10/25 13:55 LIEB 251355Z 03018KT 9999 SCT020 BKN030 18/14 Q1017 RMK OVC QUK 4 QUL 3 E VIS MAR 25 KM MON CIME INC NC VIS MIN 9999
 
LIEC - Capo Carbonara, Italy
Dati ricevuti: 25/10/2021 15:55
Parz. nuvoloso
Parz. nuvoloso
 Vento da NNE
Vento: NNE 44 km/h
Temperatura: 21°C
P.to Rugiada: 17°C
Umidità: 78%
Barometro: 1016 hPa
Clouds: Parz. nuvoloso
Visibility: 10 km
Cloud details: Parz. nuvoloso 610 m
2021/10/25 13:55 LIEC 251355Z 03024KT 9999 SCT020 21/17 Q1016 RMK OVC BKN060 QUK 4 QUL 0 VIS MAR 18 KM VIS MIN 9999
LIED - Cagliari-Decimomannu(It-A, Italy
Dati ricevuti: 25/10/2021 15:55
Parz. nuvoloso
Parz. nuvoloso
 Vento da NNO
Vento: NNO 9 km/h
Temperatura: 24°C
P.to Rugiada: 16°C
Umidità: 61%
Barometro: 1016 hPa
Clouds: Parz. nuvoloso
Visibility: 10 km
Cloud details: Few Clouds 762 m
Parz. nuvoloso 1829 m
2021/10/25 13:55 LIED 251355Z 33005KT 250V020 9999 FEW025 SCT060 24/16 Q1016 RMK BKN VIS MIN 9999 WIND THR35 03003KT WIND THR17 35004KT BLU
 
LIEE - Cagliari-Elmas(A, Italy
Dati ricevuti: 25/10/2021 16:20
Few Clouds
Few Clouds
 Vento da O
Vento: O 24 km/h
Temperatura: 22°C
P.to Rugiada: 15°C
Umidità: 65%
Barometro: 1016 hPa
Clouds: Few Clouds
Visibility: 10 km
Cloud details: Few Clouds 1524 m
2021/10/25 14:20 LIEE 251420Z 28013KT 9999 FEW050 22/15 Q1016
LIEO - Olbia-Costa Smeralda, Italy
Dati ricevuti: 25/10/2021 16:20
Few Clouds
Few Clouds
 Vento da ENE
Vento: ENE 11 km/h
Temperatura: 20°C
P.to Rugiada: 13°C
Umidità: 64%
Barometro: 1019 hPa
Clouds: Few Clouds
Visibility: 10 km
Cloud details: Few Clouds 914 m
2021/10/25 14:20 LIEO 251420Z 06006KT 040V100 9999 FEW030 20/13 Q1019
 
LIEA - Alghero, Italy
Dati ricevuti: 25/10/2021 16:20
Sereno
Sereno
 Vento da NNE
Vento: NNE 19 km/h
Temperatura: 23°C
P.to Rugiada: 12°C
Umidità: 50%
Barometro: 1018 hPa
Summary: Sereno
Visibility: greater than 10 km
2021/10/25 14:20 LIEA 251420Z 02010KT 330V040 CAVOK 23/12 Q1018
LICA - Catanzaro-Lamezia Terme, Italy
Dati ricevuti: 25/10/2021 16:20
Pioviggine, Parz. nuvoloso
Pioviggine, Parz. nuvoloso
 Vento da ENE
Vento: ENE 28 km/h, Raffica: 48 km/h
Temperatura: 19°C
P.to Rugiada: 17°C
Umidità: 88%
Barometro: 1015 hPa
Summary: Pioviggine
Clouds: Parz. nuvoloso
Visibility: 9 km
Cloud details: Few Clouds 305 m
Parz. nuvoloso 610 m
2021/10/25 14:20 LICA 251420Z 07015G26KT 9000 -RA FEW010 SCT020 19/17 Q1015
 
LIBQ - Cosenza-Monte Scuro, Italy
Dati ricevuti: 25/10/2021 15:55
Pioviggine, Nebbia
Pioviggine, Nebbia
 Vento da E
Vento: E 22 km/h, Raffica: 41 km/h
Temperatura: 9°C
Temperatura del Vento: 6°C
P.to Rugiada: 9°C
Umidità: 100%
Barometro: 1019 hPa
Summary: Pioviggine, Nebbia
Visibility: 0 km
2021/10/25 13:55 LIBQ 251355Z 09012G22KT 040V160 0000 -RA FG VV/// 09/09 Q1019 RMK MON INVIS VAL INVIS VIS MIN 0000
LICR - Reggio Calabria, Italy
Dati ricevuti: 25/10/2021 16:20
Parz. nuvoloso
Parz. nuvoloso
 Vento da NE
Vento: NE 6 km/h
Temperatura: 20°C
P.to Rugiada: 15°C
Umidità: 73%
Barometro: 1014 hPa
Clouds: Parz. nuvoloso
Visibility: 10 km
Cloud details: Parz. nuvoloso 3658 m
2021/10/25 14:20 LICR 251420Z AUTO 04003KT 360V080 9999 SCT120/// 20/15 Q1014
 
LIBV - Bari-Gioia Del Colle, Italy
Dati ricevuti: 25/10/2021 15:55
Pioviggine, Parz. nuvoloso
Pioviggine, Parz. nuvoloso
 Vento da OSO
Vento: OSO 11 km/h
Temperatura: 17°C
P.to Rugiada: 13°C
Umidità: 77%
Barometro: 1019 hPa
Summary: Pioviggine
Clouds: Parz. nuvoloso
Visibility: 10 km
Cloud details: Few Clouds 549 m
Parz. nuvoloso 610 m
2021/10/25 13:55 LIBV 251355Z 25006KT 9999 -RA FEW018 SCT020 17/13 Q1019 RMK OVC VIS MIN 9999 WIND THR32 26006KT WIND THR14 25006KT BLU
LIBD - Bari-Palese Macchie, Italy
Dati ricevuti: 25/10/2021 16:20
Few Clouds
Few Clouds
 Vento da NE
Vento: NE 15 km/h
Temperatura: 18°C
P.to Rugiada: 14°C
Umidità: 78%
Barometro: 1020 hPa
Clouds: Few Clouds
Visibility: 10 km
Cloud details: Few Clouds 610 m
2021/10/25 14:20 LIBD 251420Z 04008KT 360V070 9999 FEW020 18/14 Q1020
 
LIBR - Brindisi-Casale, Italy
Dati ricevuti: 25/10/2021 16:20
Sereno
Sereno
 Vento da E
Vento: E 15 km/h
Temperatura: 20°C
P.to Rugiada: 14°C
Umidità: 69%
Barometro: 1019 hPa
Summary: Sereno
Visibility: greater than 10 km
2021/10/25 14:20 LIBR 251420Z 10008KT CAVOK 20/14 Q1019
LIRT - Trevico, Italy
Dati ricevuti: 25/10/2021 15:55
Nebbia
Nebbia
 Vento da E
Vento: E 7 km/h
Temperatura: 8°C
Temperatura del Vento: 7°C
P.to Rugiada: 6°C
Umidità: 87%
Barometro: 1020 hPa
Summary: Nebbia
Visibility: 0 km
2021/10/25 13:55 LIRT 251355Z 09004KT 0000 FG VV/// 08/06 Q1020 RMK MON INVIS VAL INVIS VIS MIN 0000
 
LICB - Comiso, Italy
Dati ricevuti: 25/10/2021 16:20
Pioviggine, Parz. nuvoloso
Pioviggine, Parz. nuvoloso
 Vento da NNE
Vento: NNE 20 km/h
Temperatura: 19°C
P.to Rugiada: 17°C
Umidità: 88%
Barometro: 1013 hPa
Summary: Pioviggine
Clouds: Parz. nuvoloso
Visibility: 10 km
Cloud details: Parz. nuvoloso 1128 m
Parz. nuvoloso 2865 m
2021/10/25 14:20 LICB 251420Z AUTO 03011KT 9999 -RA SCT037/// SCT094/// 19/17 Q1013
LICL - Gela, Italy
Dati ricevuti: 25/10/2021 15:55
Pioviggine, Parz. nuvoloso
Pioviggine, Parz. nuvoloso
 Vento da ENE
Vento: ENE 20 km/h
Temperatura: 20°C
P.to Rugiada: 18°C
Umidità: 88%
Barometro: 1013 hPa
Summary: Pioviggine
Clouds: Parz. nuvoloso
Visibility: 10 km
Cloud details: Parz. nuvoloso 762 m
2021/10/25 13:55 LICL 251355Z 07011KT 010V110 9999 -RA SCT025 20/18 Q1013 RMK BKN BKN080 QUK 2 QUL 0 VIS MAR 10 KM VAL 10 VIS MIN 9999
 
LIBN - Lecce (it-Afb), Italy
Dati ricevuti: 25/10/2021 15:55
Few Clouds
Few Clouds
 Vento da ESE
Vento: ESE 15 km/h
Temperatura: 21°C
P.to Rugiada: 12°C
Umidità: 57%
Barometro: 1019 hPa
Clouds: Few Clouds
Visibility: 10 km
Cloud details: Few Clouds 1067 m
2021/10/25 13:55 LIBN 251355Z 12008KT 9999 FEW035 21/12 Q1019 RMK SCT SCT060 VIS MIN 9999 WIND THR14 11007KT WIND THR32 12009KT BLU
LICJ - Palermo-Punta Raisi, Italy
Dati ricevuti: 25/10/2021 16:20
Parz. nuvoloso
Parz. nuvoloso
 Vento da NE
Vento: NE 26 km/h
Temperatura: 21°C
P.to Rugiada: 17°C
Umidità: 78%
Barometro: 1013 hPa
Clouds: Parz. nuvoloso
Visibility: 10 km
Cloud details: Parz. nuvoloso 610 m
2021/10/25 14:20 LICJ 251420Z 05014KT 9999 SCT020 21/17 Q1013
 
LICZ - Catania-Sigonella (nas), Italy
Dati ricevuti: 25/10/2021 15:55
Light thunderstorm, Pioggia, Nuvoloso
Light thunderstorm, Pioggia, Nuvoloso
 Vento da ONO
Vento: ONO 9 km/h
Temperatura: 18°C
P.to Rugiada: 18°C
Umidità: 100%
Barometro: 1013 hPa
Summary: Light thunderstorm, Pioggia
Clouds: Molto nuvoloso
Visibility: 7 km
Cloud details: Few Clouds 610 m
Parz. nuvoloso 762 m
Molto nuvoloso 2134 m
2021/10/25 13:55 LICZ 251355Z 30005KT 7000 -TSRA FEW020CB SCT025 BKN070 18/18 Q1013 RMK BKN VIS MIN 7000 WIND THR28 34005KT WIND THR10 30004KT A2992 WHT
LICC - Catania-Fontanarossa, Italy
Dati ricevuti: 25/10/2021 16:20
Thunderstorm rain, Coperto
Thunderstorm rain, Coperto
 Vento da N
Vento: N 28 km/h
Temperatura: 17°C
P.to Rugiada: 16°C
Umidità: 94%
Barometro: 1013 hPa
Summary: Thunderstorm Rain
Clouds: Coperto
Visibility: 1 km
Cloud details: Few Clouds 305 m
Coperto 610 m
2021/10/25 14:20 LICC 251420Z 01015KT 0600 R08/1400D TSRA FEW010CB OVC020 17/16 Q1013
 
LICT - Trapani-Birgi (a, Italy
Dati ricevuti: 25/10/2021 15:55
Nearby thunderstorm, Nuvoloso
Nearby thunderstorm, Nuvoloso
 Vento da varies
Vento: varies 4 km/h
Temperatura: 21°C
P.to Rugiada: 19°C
Umidità: 88%
Barometro: 1013 hPa
Summary: Nearby Thunderstorm
Clouds: Molto nuvoloso
Visibility: 10 km
Cloud details: Few Clouds 610 m
Parz. nuvoloso 671 m
Molto nuvoloso 1524 m
2021/10/25 13:55 LICT 251355Z VRB02KT 9999 VCTS FEW020CB SCT022 BKN050 21/19 Q1013
LICD - Agrigento-Lampedusa, Italy
Dati ricevuti: 25/10/2021 16:20
Parz. nuvoloso
Parz. nuvoloso
 Vento da NNE
Vento: NNE 35 km/h
Temperatura: 22°C
P.to Rugiada: 18°C
Umidità: 78%
Barometro: 1009 hPa
Clouds: Parz. nuvoloso
Visibility: 10 km
Cloud details: Parz. nuvoloso 518 m
2021/10/25 14:20 LICD 251420Z AUTO 03019KT 9999 SCT017/// 22/18 Q1009
 
LICG - Pantelleria(It-A, Italy
Dati ricevuti: 25/10/2021 15:50
Sereno
Sereno
 Vento da NE
Vento: NE 11 km/h
Temperatura: 20°C
P.to Rugiada: 16°C
Umidità: 78%
Barometro: 1013 hPa
Summary: Sereno
Visibility: greater than 10 km
2021/10/25 13:50 LICG 251350Z 04006KT CAVOK 20/16 Q1013
LIPX - Villafranca(Cv/M, Italy
Dati ricevuti: 25/10/2021 16:20
Sereno
Sereno
 Vento da E
Vento: E 7 km/h
Temperatura: 14°C
P.to Rugiada: 2°C
Umidità: 44%
Barometro: 1023 hPa
Summary: Sereno
Visibility: greater than 10 km
2021/10/25 14:20 LIPX 251420Z 09004KT CAVOK 14/02 Q1023
 
LIPO - Brescia/Montichiari, Italy
Dati ricevuti: 25/10/2021 16:20
Molto nuvoloso
Molto nuvoloso
 Vento da E
Vento: E 9 km/h
Temperatura: 15°C
P.to Rugiada: 3°C
Umidità: 45%
Barometro: 1023 hPa
Clouds: Molto nuvoloso
Visibility: 10 km
Cloud details: Molto nuvoloso 5486 m
Molto nuvoloso 6401 m
2021/10/25 14:20 LIPO 251420Z AUTO 09005KT 360V140 9999 BKN180/// BKN210/// 15/03 Q1023
LIPL - Ghedi (it-Afb), Italy
Dati ricevuti: 25/10/2021 15:55
Sereno
Sereno
 Vento da NE
Vento: NE 2 km/h
Temperatura: 15°C
P.to Rugiada: 8°C
Umidità: 63%
Barometro: 1022 hPa
Summary: Sereno
Visibility: greater than 10 km
2021/10/25 13:55 LIPL 251355Z 05001KT CAVOK 15/08 Q1022 RMK SCT FEW090 VIS MIN 9999 WIND THR31 21002KT WIND THR13 21002KT BLU
 
LIMP - Parma, Italy
Dati ricevuti: 25/10/2021 15:50
Parz. nuvoloso
Parz. nuvoloso
 Vento da E
Vento: E 11 km/h
Temperatura: 14°C
P.to Rugiada: 5°C
Umidità: 55%
Barometro: 1023 hPa
Clouds: Parz. nuvoloso
Visibility: 10 km
Cloud details: Parz. nuvoloso 1829 m
2021/10/25 13:50 LIMP 251350Z 08006KT 050V120 9999 SCT060 14/05 Q1023
LIMS - Piacenza (it-Afb, Italy
Dati ricevuti: 25/10/2021 15:55
Sereno
Sereno
 Vento da ESE
Vento: ESE 13 km/h
Temperatura: 14°C
P.to Rugiada: 8°C
Umidità: 67%
Barometro: 1022 hPa
Summary: Sereno
Visibility: greater than 10 km
2021/10/25 13:55 LIMS 251355Z 12007KT 100V160 CAVOK 14/08 Q1022
 
LIPF - Ferrara (aut), Italy
Dati ricevuti: 25/10/2021 15:55
Parz. nuvoloso
Parz. nuvoloso
 Vento da varies
Vento: varies 0 km/h
Temperatura: 16°C
P.to Rugiada: 7°C
Umidità: 55%
Barometro: 1018 hPa
Clouds: Parz. nuvoloso
Visibility: 10 km
Cloud details: Few Clouds 1829 m
Parz. nuvoloso 2134 m
2021/10/25 13:55 LIPF 251355Z /////KT 9999 FEW060 SCT070 16/07 Q1018
LIPE - Bologna/Borgo (a, Italy
Dati ricevuti: 25/10/2021 16:20
Few Clouds
Few Clouds
 Vento da ESE
Vento: ESE 6 km/h
Temperatura: 15°C
P.to Rugiada: 6°C
Umidità: 55%
Barometro: 1022 hPa
Clouds: Few Clouds
Visibility: 10 km
Cloud details: Few Clouds 1280 m
2021/10/25 14:20 LIPE 251420Z 12003KT 060V140 9999 FEW042 15/06 Q1022
 
LIPU - Padova (civ/It-A, Italy
Dati ricevuti: 24/10/2021 08:00
Non Attivo
Sereno
Sereno
 Vento da varies
Vento: varies 4 km/h
Temperatura: 7°C
P.to Rugiada: 5°C
Umidità: 87%
Barometro: 1029 hPa
Summary: Sereno
Visibility: greater than 10 km
2021/10/24 06:00 LIPU 240600Z VRB02KT CAVOK 07/05 Q1029
LIME - Bergamo/Orio Ser, Italy
Dati ricevuti: 25/10/2021 16:20
Parz. nuvoloso
Parz. nuvoloso
 Vento da OSO
Vento: OSO 6 km/h
Temperatura: 13°C
P.to Rugiada: 6°C
Umidità: 63%
Barometro: 1023 hPa
Clouds: Parz. nuvoloso
Visibility: 10 km
Cloud details: Parz. nuvoloso 3353 m
2021/10/25 14:20 LIME 251420Z 24003KT 170V310 9999 SCT110 13/06 Q1023 NOSIG
 
LIMT - Cisa Pass, Italy
Dati ricevuti: 23/09/2019 13:55
Non Attivo
Nebbia
Nebbia
 Vento da calm
Vento: Calma
Temperatura: 10°C
P.to Rugiada: 10°C
Umidità: 100%
Barometro: 1014 hPa
Summary: Nebbia
Visibility: 0 km
2019/09/23 11:55 LIMT 231155Z 00000KT 0000 FG VV/// 10/10 Q1014 RMK MON INVIS VAL INVIS VIS MIN 0000
LIVC - Cimone Mountain, Italy
Dati ricevuti: 25/10/2021 15:55

 Vento da S
Vento: S 11 km/h
Temperatura: 8°C
Temperatura del Vento: 6°C
P.to Rugiada: -1°C
Umidità: 53%
Barometro: 1023 hPa
2021/10/25 13:55 LIVC 251355Z AUTO 19006KT //// 08/M01 Q1023
 
LIVP - Paganella Mounta, Italy
Dati ricevuti: 25/10/2021 11:55
Non Attivo
Sereno
Sereno
 Vento da SSE
Vento: SSE 13 km/h
Temperatura: 8°C
Temperatura del Vento: 6°C
P.to Rugiada: -14°C
Umidità: 20%
Barometro: 1025 hPa
Summary: Sereno
Visibility: greater than 10 km
2021/10/25 09:55 LIVP 250955Z 16007KT CAVOK 08/M14 Q1025 RMK BKN BKN080 SCT090 MON LIB VAL S FOSCHIA SKC SUP VIS MIN 9999
LIML - Milano/Linate, Italy
Dati ricevuti: 25/10/2021 16:20
Sereno
Sereno
 Vento da SSE
Vento: SSE 9 km/h
Temperatura: 14°C
P.to Rugiada: 4°C
Umidità: 51%
Barometro: 1023 hPa
Summary: Sereno
Visibility: greater than 10 km
2021/10/25 14:20 LIML 251420Z 15005KT 090V170 CAVOK 14/04 Q1023 NOSIG
 
LIPS - Istrana (it-Afb), Italy
Dati ricevuti: 25/10/2021 15:55
Few Clouds
Few Clouds
 Vento da ENE
Vento: ENE 7 km/h
Temperatura: 16°C
P.to Rugiada: 3°C
Umidità: 42%
Barometro: 1023 hPa
Clouds: Few Clouds
Visibility: 10 km
Cloud details: Few Clouds 3048 m
2021/10/25 13:55 LIPS 251355Z 07004KT 9999 FEW100 16/03 Q1023 RMK BKN BKN180 VIS MIN 9999 WIND THR26 05005KT WIND THR08 08004KT BLK BLU
LIPH - Treviso(Civ/It-A, Italy
Dati ricevuti: 25/10/2021 16:20
Sereno
Sereno
 Vento da E
Vento: E 15 km/h
Temperatura: 16°C
P.to Rugiada: 0°C
Umidità: 34%
Barometro: 1023 hPa
Summary: Sereno
Visibility: greater than 10 km
2021/10/25 14:20 LIPH 251420Z 08008KT CAVOK 16/00 Q1023
 
LIPZ - Venezia/Tessera, Italy
Dati ricevuti: 25/10/2021 16:20
Sereno
Sereno
 Vento da E
Vento: E 9 km/h
Temperatura: 15°C
P.to Rugiada: 3°C
Umidità: 45%
Barometro: 1023 hPa
Summary: Sereno
Visibility: greater than 10 km
2021/10/25 14:20 LIPZ 251420Z 10005KT CAVOK 15/03 Q1023 NOSIG
LIQW - Sarzana/Luni, Italy
Dati ricevuti: 25/10/2021 13:55
Non Attivo
Sereno
Sereno
 Vento da varies
Vento: varies 0 km/h
Temperatura: 18°C
P.to Rugiada: 5°C
Umidità: 43%
Barometro: 1020 hPa
Summary: Sereno
Visibility: greater than 10 km
2021/10/25 11:55 LIQW 251155Z /////KT CAVOK 18/05 Q1020
 
LIVR - Rolle Pass, Italy
Dati ricevuti: 25/10/2021 15:55
Sereno
Sereno
 Vento da SE
Vento: SE 11 km/h
Temperatura: 7°C
Temperatura del Vento: 5°C
P.to Rugiada: -10°C
Umidità: 29%
Barometro: 1025 hPa
Summary: Sereno
Visibility: greater than 10 km
2021/10/25 13:55 LIVR 251355Z 13006KT CAVOK 07/M10 Q1025 RMK BKN BKN080 MON LIB VIS MIN 9999
LIPK - Forli (civ/It-Af, Italy
Dati ricevuti: 25/10/2021 15:50
Sereno
Sereno
 Vento da varies
Vento: varies 6 km/h
Temperatura: 16°C
P.to Rugiada: 7°C
Umidità: 55%
Barometro: 1022 hPa
Summary: Sereno
Visibility: greater than 10 km
2021/10/25 13:50 LIPK 251350Z VRB03KT CAVOK 16/07 Q1022
 
LIMV - Giovi Pass, Italy
Dati ricevuti: 23/10/2021 19:55
Non Attivo
Patches of fog, Coperto
Patches of fog, Coperto
 Vento da varies
Vento: varies 0 km/h
Temperatura: 11°C
P.to Rugiada: 10°C
Umidità: 94%
Barometro: 1024 hPa
Summary: Patches of Fog
Clouds: Coperto
Visibility: 2 km
Cloud details: Coperto 91 m
2021/10/23 17:55 LIMV 231755Z /////KT 2000 0800N BCFG OVC003 11/10 Q1024 RMK OVC MON INVIS NC VAL N INVIS S FOSCHIA VIS MIN 0800N
LIPB - Bolzano(Civ/It-A, Italy
Dati ricevuti: 25/10/2021 15:50
Sereno
Sereno
 Vento da varies
Vento: varies 4 km/h
Temperatura: 13°C
P.to Rugiada: 4°C
Umidità: 55%
Barometro: 1023 hPa
Summary: Sereno
Visibility: greater than 10 km
2021/10/25 13:50 LIPB 251350Z VRB02KT CAVOK 13/04 Q1023
 
LIVD - Bolzano-Dobbiaco, Italy
Dati ricevuti: 25/10/2021 15:55
Sereno
Sereno
 Vento da varies
Vento: varies 0 km/h
Temperatura: 7°C
P.to Rugiada: -1°C
Umidità: 57%
Barometro: 1023 hPa
Summary: Sereno
Visibility: greater than 10 km
2021/10/25 13:55 LIVD 251355Z /////KT CAVOK 07/M01 Q1023 RMK BKN BKN180 VIS MIN 9999
LIVE - Bolzano-Passo Resia, Italy
Dati ricevuti: 25/10/2021 15:55
Sereno
Sereno
 Vento da SO
Vento: SO 15 km/h
Temperatura: 7°C
Temperatura del Vento: 4°C
P.to Rugiada: -1°C
Umidità: 57%
Barometro: 1021 hPa
Summary: Sereno
Visibility: greater than 10 km
2021/10/25 13:55 LIVE 251355Z 22008KT CAVOK 07/M01 Q1021 RMK BKN BKN180 VIS MIN 9999
 
LIMH - Aosta-Pian Rosa (mtn T, Italy
Dati ricevuti: 25/10/2021 15:55
Sereno
Sereno
 Vento da SO
Vento: SO 9 km/h
Temperatura: -3°C
Temperatura del Vento: -7°C
P.to Rugiada: -8°C
Umidità: 69%
Barometro: 1026 hPa
Summary: Sereno
Visibility: greater than 10 km
2021/10/25 13:55 LIMH 251355Z 22005KT CAVOK M03/M08 Q1026 RMK SKC MON LIB VAL S FOSCHIA VIS MIN 9999
LIMZ - Cuneo/Levaldigi, Italy
Dati ricevuti: 25/10/2021 16:20
Sereno
Sereno
 Vento da NE
Vento: NE 7 km/h
Temperatura: 16°C
P.to Rugiada: 5°C
Umidità: 48%
Barometro: 1022 hPa
Clouds: Sereno
Visibility: 10 km
2021/10/25 14:20 LIMZ 251420Z AUTO 05004KT 350V120 9999 NCD 16/05 Q1022
 
LIMK - Torino-Bric Della Croce, Italy
Dati ricevuti: 25/10/2021 11:55
Non Attivo
Few Clouds
Few Clouds
 Vento da calm
Vento: Calma
Temperatura: 11°C
P.to Rugiada: 9°C
Umidità: 88%
Barometro: 1024 hPa
Clouds: Few Clouds
Visibility: 10 km
Cloud details: Few Clouds 1219 m
2021/10/25 09:55 LIMK 250955Z 00000KT 9999 FEW040 11/09 Q1024 RMK FEW VAL FOSCHIA VIS MIN 9999
LIMN - Novara-Cameri (it-Afb), Italy
Dati ricevuti: 25/10/2021 15:55
Sereno
Sereno
 Vento da varies
Vento: varies 0 km/h
Temperatura: 15°C
P.to Rugiada: 5°C
Umidità: 51%
Barometro: 1022 hPa
Summary: Sereno
Visibility: greater than 10 km
2021/10/25 13:55 LIMN 251355Z /////KT CAVOK 15/05 Q1022 RMK SCT SCT120 VIS MIN 9999 BLU
 
LIPA - Pordenone-Aviano (it/Us-Af, Italy
Dati ricevuti: 25/10/2021 15:55
Few Clouds
Few Clouds
 Vento da NE
Vento: NE 13 km/h
Temperatura: 15°C
P.to Rugiada: 2°C
Umidità: 42%
Barometro: 1022 hPa
Clouds: Few Clouds
Visibility: 10 km
Cloud details: Few Clouds 3353 m
2021/10/25 13:55 LIPA 251355Z 04007KT 9999 FEW110 15/02 Q1022 RMK BKN BKN200 VIS MIN 9999 WIND THR05 /////KT WIND THR23 /////KT A3020 BLU
LIPI - Udine-Rivolto (it-Afb), Italy
Dati ricevuti: 25/10/2021 15:55
Few Clouds
Few Clouds
 Vento da NE
Vento: NE 6 km/h
Temperatura: 17°C
P.to Rugiada: -1°C
Umidità: 30%
Barometro: 1022 hPa
Clouds: Few Clouds
Visibility: 10 km
Cloud details: Few Clouds 3048 m
2021/10/25 13:55 LIPI 251355Z 04003KT 9999 FEW100 17/M01 Q1022 RMK BKN SCT200 VIS MIN 9999 WIND THR06 07002KT WIND THR24 09004KT BLU
 
LIVO - Udine-Tarvisio, Italy
Dati ricevuti: 25/10/2021 15:55
Sereno
Sereno
 Vento da ESE
Vento: ESE 6 km/h
Temperatura: 9°C
P.to Rugiada: 4°C
Umidità: 71%
Barometro: 1023 hPa
Summary: Sereno
Visibility: greater than 10 km
2021/10/25 13:55 LIVO 251355Z 11003KT CAVOK 09/04 Q1023 RMK BKN BKN200 VIS MIN 9999
LIPQ - Trieste-Ronchi Dei Legionari, Italy
Dati ricevuti: 25/10/2021 16:20
Sereno
Sereno
 Vento da ESE
Vento: ESE 15 km/h
Temperatura: 16°C
P.to Rugiada: 1°C
Umidità: 36%
Barometro: 1022 hPa
Clouds: Sereno
Visibility: 10 km
2021/10/25 14:20 LIPQ 251420Z AUTO 11008KT 9999 NCD 16/01 Q1022
 
LIVT - Trieste, Italy
Dati ricevuti: 25/10/2021 15:55
Sereno
Sereno
 Vento da NE
Vento: NE 11 km/h
Temperatura: 16°C
P.to Rugiada: 1°C
Umidità: 36%
Barometro: 1022 hPa
Summary: Sereno
Visibility: greater than 10 km
2021/10/25 13:55 LIVT 251355Z 04006KT CAVOK 16/01 Q1022 RMK BKN BKN200 QUK 2 QUL 1 NE VIS MAR 20 KM VIS MIN 9999
LIRQ - Firenze/Peretola, Italy
Dati ricevuti: 25/10/2021 16:20
Sereno
Sereno
 Vento da N
Vento: N 13 km/h
Temperatura: 18°C
P.to Rugiada: 7°C
Umidità: 49%
Barometro: 1019 hPa
Summary: Sereno
Visibility: greater than 10 km
2021/10/25 14:20 LIRQ 251420Z 36007KT CAVOK 18/07 Q1019
 
LIPK - Forli (civ/It-Af, Italy
Dati ricevuti: 25/10/2021 15:50
Sereno
Sereno
 Vento da varies
Vento: varies 6 km/h
Temperatura: 16°C
P.to Rugiada: 7°C
Umidità: 55%
Barometro: 1022 hPa
Summary: Sereno
Visibility: greater than 10 km
2021/10/25 13:50 LIPK 251350Z VRB03KT CAVOK 16/07 Q1022
LIRS - Grosseto (it-Afb, Italy
Dati ricevuti: 25/10/2021 15:55
Sereno
Sereno
 Vento da NNO
Vento: NNO 6 km/h
Temperatura: 21°C
P.to Rugiada: 8°C
Umidità: 43%
Barometro: 1018 hPa
Summary: Sereno
Visibility: greater than 10 km
2021/10/25 13:55 LIRS 251355Z 33003KT CAVOK 21/08 Q1018
 
LIRP - Pisa (civ/It-Afb, Italy
Dati ricevuti: 25/10/2021 16:15
Sereno
Sereno
 Vento da varies
Vento: varies 6 km/h
Temperatura: 19°C
P.to Rugiada: 4°C
Umidità: 37%
Barometro: 1019 hPa
Summary: Sereno
Visibility: greater than 10 km
2021/10/25 14:15 LIRP 251415Z VRB03KT CAVOK 19/04 Q1019 NOSIG
LIVF - Frontone, Italy
Dati ricevuti: 25/10/2021 08:55
Non Attivo
Sereno
Sereno
 Vento da SE
Vento: SE 6 km/h
Temperatura: 7°C
P.to Rugiada: 6°C
Umidità: 93%
Barometro: 1021 hPa
Summary: Sereno
Visibility: greater than 10 km
2021/10/25 06:55 LIVF 250655Z 14003KT CAVOK 07/06 Q1021 RMK BKN SCT120 SCT200 MON LIB VAL NW NEBBIA NC VIS MIN 9999
 
LIPC - Cervia (it-Afb), Italy
Dati ricevuti: 25/10/2021 15:55
Sereno
Sereno
 Vento da NNE
Vento: NNE 7 km/h
Temperatura: 15°C
P.to Rugiada: 10°C
Umidità: 72%
Barometro: 1022 hPa
Summary: Sereno
Visibility: greater than 10 km
2021/10/25 13:55 LIPC 251355Z 03004KT CAVOK 15/10 Q1022
LIPR - Rimini (civ/It-A, Italy
Dati ricevuti: 25/10/2021 16:20
Few Clouds
Few Clouds
 Vento da N
Vento: N 6 km/h
Temperatura: 15°C
P.to Rugiada: 9°C
Umidità: 68%
Barometro: 1022 hPa
Clouds: Few Clouds
Visibility: 10 km
Cloud details: Few Clouds 1524 m
2021/10/25 14:20 LIPR 251420Z 35003KT 310V020 9999 FEW050 15/09 Q1022
 
LIRX - Monte Calamita, Italy
Dati ricevuti: 25/10/2021 15:55
Sereno
Sereno
 Vento da NO
Vento: NO 11 km/h
Temperatura: 18°C
P.to Rugiada: 8°C
Umidità: 52%
Barometro: 1017 hPa
Summary: Sereno
Visibility: greater than 10 km
2021/10/25 13:55 LIRX 251355Z 31006KT CAVOK 18/08 Q1017 RMK OVC BKN070 SCT200 VIS MIN 9999 VIS MAR 20 KM
LIVM - Punta Marina/Rav, Italy
Dati ricevuti: 25/10/2021 15:55
Parz. nuvoloso
Parz. nuvoloso
 Vento da ENE
Vento: ENE 9 km/h
Temperatura: 16°C
P.to Rugiada: 10°C
Umidità: 68%
Barometro: 1023 hPa
Clouds: Parz. nuvoloso
Visibility: 10 km
Cloud details: Parz. nuvoloso 762 m
2021/10/25 13:55 LIVM 251355Z 07005KT 9999 SCT025 16/10 Q1023 RMK BKN BKN070 QUK 2 QUL 1 E VIS MAR 12 KM VIS MIN 9999